sensor_id;sensor_type;location;lat;lon;timestamp;P1;durP1;ratioP1;P2;durP2;ratioP2
36449;SDS011;22475;51.390;7.180;2022-08-19T00:00:15;4.32;;;3.92;;
36449;SDS011;22475;51.390;7.180;2022-08-19T00:02:43;3.75;;;3.20;;
36449;SDS011;22475;51.390;7.180;2022-08-19T00:05:11;3.78;;;3.58;;
36449;SDS011;22475;51.390;7.180;2022-08-19T00:07:39;3.95;;;3.65;;
36449;SDS011;22475;51.390;7.180;2022-08-19T00:10:09;3.58;;;3.30;;
36449;SDS011;22475;51.390;7.180;2022-08-19T00:12:37;3.93;;;3.57;;
36449;SDS011;22475;51.390;7.180;2022-08-19T00:15:05;4.00;;;3.78;;
36449;SDS011;22475;51.390;7.180;2022-08-19T00:17:37;3.22;;;3.03;;
36449;SDS011;22475;51.390;7.180;2022-08-19T00:20:05;3.20;;;3.00;;
36449;SDS011;22475;51.390;7.180;2022-08-19T00:22:33;4.03;;;3.72;;
36449;SDS011;22475;51.390;7.180;2022-08-19T00:25:00;3.85;;;3.58;;
36449;SDS011;22475;51.390;7.180;2022-08-19T00:27:28;4.45;;;3.53;;
36449;SDS011;22475;51.390;7.180;2022-08-19T00:29:55;5.30;;;3.28;;
36449;SDS011;22475;51.390;7.180;2022-08-19T00:32:23;4.93;;;3.50;;
36449;SDS011;22475;51.390;7.180;2022-08-19T00:34:51;3.88;;;3.58;;
36449;SDS011;22475;51.390;7.180;2022-08-19T00:37:18;3.58;;;3.28;;
36449;SDS011;22475;51.390;7.180;2022-08-19T00:39:47;3.92;;;3.63;;
36449;SDS011;22475;51.390;7.180;2022-08-19T00:42:16;3.97;;;3.67;;
36449;SDS011;22475;51.390;7.180;2022-08-19T00:44:44;5.30;;;3.22;;
36449;SDS011;22475;51.390;7.180;2022-08-19T00:47:11;3.72;;;3.45;;
36449;SDS011;22475;51.390;7.180;2022-08-19T00:49:40;4.13;;;3.83;;
36449;SDS011;22475;51.390;7.180;2022-08-19T00:52:11;3.42;;;3.22;;
36449;SDS011;22475;51.390;7.180;2022-08-19T00:54:41;3.67;;;3.47;;
36449;SDS011;22475;51.390;7.180;2022-08-19T00:57:11;3.80;;;3.50;;
36449;SDS011;22475;51.390;7.180;2022-08-19T00:59:42;3.15;;;2.95;;
36449;SDS011;22475;51.390;7.180;2022-08-19T01:02:12;4.00;;;3.70;;
36449;SDS011;22475;51.390;7.180;2022-08-19T01:04:39;3.83;;;3.55;;
36449;SDS011;22475;51.390;7.180;2022-08-19T01:07:06;3.35;;;3.15;;
36449;SDS011;22475;51.390;7.180;2022-08-19T01:09:34;3.95;;;3.55;;
36449;SDS011;22475;51.390;7.180;2022-08-19T01:12:01;3.53;;;3.33;;
36449;SDS011;22475;51.390;7.180;2022-08-19T01:14:29;3.17;;;2.97;;
36449;SDS011;22475;51.390;7.180;2022-08-19T01:16:58;3.63;;;3.42;;
36449;SDS011;22475;51.390;7.180;2022-08-19T01:19:26;3.63;;;3.42;;
36449;SDS011;22475;51.390;7.180;2022-08-19T01:21:57;3.42;;;3.00;;
36449;SDS011;22475;51.390;7.180;2022-08-19T01:24:29;4.00;;;3.72;;
36449;SDS011;22475;51.390;7.180;2022-08-19T01:26:57;3.67;;;3.38;;
36449;SDS011;22475;51.390;7.180;2022-08-19T01:29:24;4.00;;;3.65;;
36449;SDS011;22475;51.390;7.180;2022-08-19T01:31:51;2.97;;;2.78;;
36449;SDS011;22475;51.390;7.180;2022-08-19T01:34:18;3.70;;;3.15;;
36449;SDS011;22475;51.390;7.180;2022-08-19T01:36:47;3.28;;;2.70;;
36449;SDS011;22475;51.390;7.180;2022-08-19T01:39:15;3.50;;;3.22;;
36449;SDS011;22475;51.390;7.180;2022-08-19T01:41:45;3.67;;;3.47;;
36449;SDS011;22475;51.390;7.180;2022-08-19T01:44:13;3.50;;;3.30;;
36449;SDS011;22475;51.390;7.180;2022-08-19T01:46:41;3.25;;;3.00;;
36449;SDS011;22475;51.390;7.180;2022-08-19T01:49:08;3.63;;;3.42;;
36449;SDS011;22475;51.390;7.180;2022-08-19T01:51:35;3.53;;;3.28;;
36449;SDS011;22475;51.390;7.180;2022-08-19T01:54:03;3.67;;;3.28;;
36449;SDS011;22475;51.390;7.180;2022-08-19T01:56:30;3.35;;;3.10;;
36449;SDS011;22475;51.390;7.180;2022-08-19T01:59:00;3.30;;;3.10;;
36449;SDS011;22475;51.390;7.180;2022-08-19T02:01:29;3.58;;;3.38;;
36449;SDS011;22475;51.390;7.180;2022-08-19T02:03:57;5.07;;;3.60;;
36449;SDS011;22475;51.390;7.180;2022-08-19T02:06:25;3.25;;;3.05;;
36449;SDS011;22475;51.390;7.180;2022-08-19T02:08:52;3.63;;;3.42;;
36449;SDS011;22475;51.390;7.180;2022-08-19T02:11:19;4.38;;;2.95;;
36449;SDS011;22475;51.390;7.180;2022-08-19T02:13:48;3.47;;;3.28;;
36449;SDS011;22475;51.390;7.180;2022-08-19T02:16:17;3.20;;;3.00;;
36449;SDS011;22475;51.390;7.180;2022-08-19T02:18:45;3.83;;;3.53;;
36449;SDS011;22475;51.390;7.180;2022-08-19T02:21:13;3.80;;;3.50;;
36449;SDS011;22475;51.390;7.180;2022-08-19T02:23:40;3.92;;;3.63;;
36449;SDS011;22475;51.390;7.180;2022-08-19T02:26:07;2.88;;;2.70;;
36449;SDS011;22475;51.390;7.180;2022-08-19T02:28:35;4.65;;;2.83;;
36449;SDS011;22475;51.390;7.180;2022-08-19T02:31:02;5.43;;;3.42;;
36449;SDS011;22475;51.390;7.180;2022-08-19T02:33:31;3.17;;;2.97;;
36449;SDS011;22475;51.390;7.180;2022-08-19T02:35:57;3.33;;;3.13;;
36449;SDS011;22475;51.390;7.180;2022-08-19T02:38:24;3.58;;;3.30;;
36449;SDS011;22475;51.390;7.180;2022-08-19T02:40:52;3.03;;;2.83;;
36449;SDS011;22475;51.390;7.180;2022-08-19T02:43:21;3.78;;;3.42;;
36449;SDS011;22475;51.390;7.180;2022-08-19T02:45:48;3.03;;;2.83;;
36449;SDS011;22475;51.390;7.180;2022-08-19T02:48:16;3.20;;;2.97;;
36449;SDS011;22475;51.390;7.180;2022-08-19T02:50:45;3.83;;;3.53;;
36449;SDS011;22475;51.390;7.180;2022-08-19T02:53:13;3.72;;;3.42;;
36449;SDS011;22475;51.390;7.180;2022-08-19T02:55:43;3.80;;;3.58;;
36449;SDS011;22475;51.390;7.180;2022-08-19T02:58:11;3.13;;;2.92;;
36449;SDS011;22475;51.390;7.180;2022-08-19T03:00:42;3.67;;;3.38;;
36449;SDS011;22475;51.390;7.180;2022-08-19T03:03:10;3.13;;;2.85;;
36449;SDS011;22475;51.390;7.180;2022-08-19T03:05:37;3.58;;;2.88;;
36449;SDS011;22475;51.390;7.180;2022-08-19T03:08:06;4.05;;;3.75;;
36449;SDS011;22475;51.390;7.180;2022-08-19T03:10:32;3.53;;;3.22;;
36449;SDS011;22475;51.390;7.180;2022-08-19T03:13:05;3.15;;;2.83;;
36449;SDS011;22475;51.390;7.180;2022-08-19T03:15:32;3.72;;;3.53;;
36449;SDS011;22475;51.390;7.180;2022-08-19T03:17:58;6.50;;;3.40;;
36449;SDS011;22475;51.390;7.180;2022-08-19T03:20:25;3.45;;;3.25;;
36449;SDS011;22475;51.390;7.180;2022-08-19T03:22:52;4.00;;;3.65;;
36449;SDS011;22475;51.390;7.180;2022-08-19T03:25:20;5.55;;;2.80;;
36449;SDS011;22475;51.390;7.180;2022-08-19T03:27:47;5.32;;;3.28;;
36449;SDS011;22475;51.390;7.180;2022-08-19T03:30:14;4.25;;;3.50;;
36449;SDS011;22475;51.390;7.180;2022-08-19T03:32:41;3.35;;;3.05;;
36449;SDS011;22475;51.390;7.180;2022-08-19T03:35:08;3.55;;;3.35;;
36449;SDS011;22475;51.390;7.180;2022-08-19T03:37:35;3.58;;;3.38;;
36449;SDS011;22475;51.390;7.180;2022-08-19T03:40:02;5.03;;;3.03;;
36449;SDS011;22475;51.390;7.180;2022-08-19T03:42:31;3.70;;;3.40;;
36449;SDS011;22475;51.390;7.180;2022-08-19T03:44:58;3.53;;;3.33;;
36449;SDS011;22475;51.390;7.180;2022-08-19T03:47:25;3.70;;;3.15;;
36449;SDS011;22475;51.390;7.180;2022-08-19T03:49:53;4.85;;;3.30;;
36449;SDS011;22475;51.390;7.180;2022-08-19T03:52:20;3.45;;;3.17;;
36449;SDS011;22475;51.390;7.180;2022-08-19T03:54:47;3.20;;;3.00;;
36449;SDS011;22475;51.390;7.180;2022-08-19T03:57:14;3.83;;;3.45;;
36449;SDS011;22475;51.390;7.180;2022-08-19T03:59:42;3.40;;;3.17;;
36449;SDS011;22475;51.390;7.180;2022-08-19T04:02:10;4.07;;;3.55;;
36449;SDS011;22475;51.390;7.180;2022-08-19T04:04:38;3.92;;;3.58;;
36449;SDS011;22475;51.390;7.180;2022-08-19T04:07:08;5.20;;;3.60;;
36449;SDS011;22475;51.390;7.180;2022-08-19T04:09:35;3.47;;;3.25;;
36449;SDS011;22475;51.390;7.180;2022-08-19T04:12:03;4.35;;;3.97;;
36449;SDS011;22475;51.390;7.180;2022-08-19T04:14:31;3.70;;;3.40;;
36449;SDS011;22475;51.390;7.180;2022-08-19T04:17:02;3.30;;;3.00;;
36449;SDS011;22475;51.390;7.180;2022-08-19T04:19:30;3.60;;;3.30;;
36449;SDS011;22475;51.390;7.180;2022-08-19T04:21:57;3.50;;;3.30;;
36449;SDS011;22475;51.390;7.180;2022-08-19T04:24:25;4.45;;;3.10;;
36449;SDS011;22475;51.390;7.180;2022-08-19T04:26:52;3.15;;;2.95;;
36449;SDS011;22475;51.390;7.180;2022-08-19T04:29:20;3.50;;;3.30;;
36449;SDS011;22475;51.390;7.180;2022-08-19T04:31:49;4.55;;;4.15;;
36449;SDS011;22475;51.390;7.180;2022-08-19T04:34:20;3.70;;;3.40;;
36449;SDS011;22475;51.390;7.180;2022-08-19T04:36:49;3.38;;;3.17;;
36449;SDS011;22475;51.390;7.180;2022-08-19T04:39:18;4.63;;;2.95;;
36449;SDS011;22475;51.390;7.180;2022-08-19T04:41:46;3.63;;;3.40;;
36449;SDS011;22475;51.390;7.180;2022-08-19T04:44:31;4.10;;;3.67;;
36449;SDS011;22475;51.390;7.180;2022-08-19T04:46:59;3.72;;;3.50;;
36449;SDS011;22475;51.390;7.180;2022-08-19T04:49:30;3.67;;;3.47;;
36449;SDS011;22475;51.390;7.180;2022-08-19T04:51:57;3.67;;;3.35;;
36449;SDS011;22475;51.390;7.180;2022-08-19T04:54:24;3.63;;;3.33;;
36449;SDS011;22475;51.390;7.180;2022-08-19T04:56:52;3.83;;;2.90;;
36449;SDS011;22475;51.390;7.180;2022-08-19T04:59:19;3.85;;;3.55;;
36449;SDS011;22475;51.390;7.180;2022-08-19T05:01:47;3.40;;;3.10;;
36449;SDS011;22475;51.390;7.180;2022-08-19T05:04:15;3.33;;;3.13;;
36449;SDS011;22475;51.390;7.180;2022-08-19T05:06:45;3.60;;;2.95;;
36449;SDS011;22475;51.390;7.180;2022-08-19T05:09:13;2.90;;;2.60;;
36449;SDS011;22475;51.390;7.180;2022-08-19T05:11:41;4.78;;;3.83;;
36449;SDS011;22475;51.390;7.180;2022-08-19T05:14:09;3.58;;;3.38;;
36449;SDS011;22475;51.390;7.180;2022-08-19T05:16:37;4.78;;;3.10;;
36449;SDS011;22475;51.390;7.180;2022-08-19T05:19:05;3.00;;;2.80;;
36449;SDS011;22475;51.390;7.180;2022-08-19T05:21:51;4.00;;;3.25;;
36449;SDS011;22475;51.390;7.180;2022-08-19T05:24:35;5.50;;;3.20;;
36449;SDS011;22475;51.390;7.180;2022-08-19T05:27:03;6.20;;;3.03;;
36449;SDS011;22475;51.390;7.180;2022-08-19T05:29:30;3.38;;;3.17;;
36449;SDS011;22475;51.390;7.180;2022-08-19T05:31:59;3.53;;;3.22;;
36449;SDS011;22475;51.390;7.180;2022-08-19T05:34:36;4.03;;;3.72;;
36449;SDS011;22475;51.390;7.180;2022-08-19T05:37:05;3.05;;;2.80;;
36449;SDS011;22475;51.390;7.180;2022-08-19T05:39:34;6.30;;;3.67;;
36449;SDS011;22475;51.390;7.180;2022-08-19T05:42:03;4.13;;;3.83;;
36449;SDS011;22475;51.390;7.180;2022-08-19T05:44:33;3.58;;;3.28;;
36449;SDS011;22475;51.390;7.180;2022-08-19T05:47:02;3.47;;;3.20;;
36449;SDS011;22475;51.390;7.180;2022-08-19T05:49:31;3.20;;;2.83;;
36449;SDS011;22475;51.390;7.180;2022-08-19T05:52:01;3.55;;;3.25;;
36449;SDS011;22475;51.390;7.180;2022-08-19T05:54:30;3.93;;;3.53;;
36449;SDS011;22475;51.390;7.180;2022-08-19T05:56:57;3.55;;;3.35;;
36449;SDS011;22475;51.390;7.180;2022-08-19T05:59:24;3.78;;;2.90;;
36449;SDS011;22475;51.390;7.180;2022-08-19T06:01:51;4.05;;;3.75;;
36449;SDS011;22475;51.390;7.180;2022-08-19T06:04:20;3.55;;;3.30;;
36449;SDS011;22475;51.390;7.180;2022-08-19T06:06:47;3.47;;;3.28;;
36449;SDS011;22475;51.390;7.180;2022-08-19T06:09:16;4.05;;;2.78;;
36449;SDS011;22475;51.390;7.180;2022-08-19T06:11:46;6.18;;;3.90;;
36449;SDS011;22475;51.390;7.180;2022-08-19T06:14:15;3.22;;;3.08;;
36449;SDS011;22475;51.390;7.180;2022-08-19T06:16:43;7.07;;;3.85;;
36449;SDS011;22475;51.390;7.180;2022-08-19T06:19:11;5.38;;;3.80;;
36449;SDS011;22475;51.390;7.180;2022-08-19T06:21:41;4.50;;;3.30;;
36449;SDS011;22475;51.390;7.180;2022-08-19T06:24:11;3.75;;;3.47;;
36449;SDS011;22475;51.390;7.180;2022-08-19T06:26:41;3.13;;;2.78;;
36449;SDS011;22475;51.390;7.180;2022-08-19T06:29:13;3.75;;;3.45;;
36449;SDS011;22475;51.390;7.180;2022-08-19T06:31:42;4.10;;;3.80;;
36449;SDS011;22475;51.390;7.180;2022-08-19T06:34:12;3.45;;;3.25;;
36449;SDS011;22475;51.390;7.180;2022-08-19T06:36:43;3.72;;;3.40;;
36449;SDS011;22475;51.390;7.180;2022-08-19T06:39:13;3.42;;;3.13;;
36449;SDS011;22475;51.390;7.180;2022-08-19T06:41:45;4.95;;;3.15;;
36449;SDS011;22475;51.390;7.180;2022-08-19T06:44:17;3.17;;;2.88;;
36449;SDS011;22475;51.390;7.180;2022-08-19T06:46:53;4.40;;;3.58;;
36449;SDS011;22475;51.390;7.180;2022-08-19T06:49:22;3.97;;;3.70;;
36449;SDS011;22475;51.390;7.180;2022-08-19T06:51:57;7.07;;;3.80;;
36449;SDS011;22475;51.390;7.180;2022-08-19T06:54:26;3.87;;;3.30;;
36449;SDS011;22475;51.390;7.180;2022-08-19T06:56:55;3.58;;;3.28;;
36449;SDS011;22475;51.390;7.180;2022-08-19T06:59:24;4.10;;;3.83;;
36449;SDS011;22475;51.390;7.180;2022-08-19T07:01:53;5.60;;;3.40;;
36449;SDS011;22475;51.390;7.180;2022-08-19T07:06:56;4.13;;;3.25;;
36449;SDS011;22475;51.390;7.180;2022-08-19T07:09:24;4.40;;;4.10;;
36449;SDS011;22475;51.390;7.180;2022-08-19T07:11:51;3.58;;;3.38;;
36449;SDS011;22475;51.390;7.180;2022-08-19T07:14:19;5.22;;;4.72;;
36449;SDS011;22475;51.390;7.180;2022-08-19T07:16:50;4.53;;;4.13;;
36449;SDS011;22475;51.390;7.180;2022-08-19T07:19:19;4.03;;;3.60;;
36449;SDS011;22475;51.390;7.180;2022-08-19T07:21:47;4.47;;;3.90;;
36449;SDS011;22475;51.390;7.180;2022-08-19T07:24:16;16.75;;;8.43;;
36449;SDS011;22475;51.390;7.180;2022-08-19T07:26:43;7.78;;;5.65;;
36449;SDS011;22475;51.390;7.180;2022-08-19T07:29:10;15.43;;;9.20;;
36449;SDS011;22475;51.390;7.180;2022-08-19T07:31:38;8.48;;;6.20;;
36449;SDS011;22475;51.390;7.180;2022-08-19T07:34:08;4.60;;;4.20;;
36449;SDS011;22475;51.390;7.180;2022-08-19T07:36:38;4.32;;;3.97;;
36449;SDS011;22475;51.390;7.180;2022-08-19T07:39:10;4.47;;;4.07;;
36449;SDS011;22475;51.390;7.180;2022-08-19T07:41:39;8.98;;;4.45;;
36449;SDS011;22475;51.390;7.180;2022-08-19T07:44:06;4.53;;;4.13;;
36449;SDS011;22475;51.390;7.180;2022-08-19T07:46:34;6.72;;;5.90;;
36449;SDS011;22475;51.390;7.180;2022-08-19T07:49:03;12.75;;;6.28;;
36449;SDS011;22475;51.390;7.180;2022-08-19T07:51:32;9.63;;;8.63;;
36449;SDS011;22475;51.390;7.180;2022-08-19T07:53:59;8.98;;;5.53;;
36449;SDS011;22475;51.390;7.180;2022-08-19T07:56:26;3.70;;;3.40;;
36449;SDS011;22475;51.390;7.180;2022-08-19T07:58:53;4.63;;;3.17;;
36449;SDS011;22475;51.390;7.180;2022-08-19T08:01:22;10.18;;;7.40;;
36449;SDS011;22475;51.390;7.180;2022-08-19T08:03:50;11.15;;;8.70;;
36449;SDS011;22475;51.390;7.180;2022-08-19T08:06:37;5.00;;;3.58;;
36449;SDS011;22475;51.390;7.180;2022-08-19T08:09:24;14.38;;;6.70;;
36449;SDS011;22475;51.390;7.180;2022-08-19T08:11:53;4.88;;;4.20;;
36449;SDS011;22475;51.390;7.180;2022-08-19T08:14:23;4.82;;;3.47;;
36449;SDS011;22475;51.390;7.180;2022-08-19T08:16:53;6.20;;;4.88;;
36449;SDS011;22475;51.390;7.180;2022-08-19T08:19:20;6.03;;;3.90;;
36449;SDS011;22475;51.390;7.180;2022-08-19T08:21:50;3.55;;;3.25;;
36449;SDS011;22475;51.390;7.180;2022-08-19T08:24:18;8.65;;;4.57;;
36449;SDS011;22475;51.390;7.180;2022-08-19T08:26:46;3.10;;;2.90;;
36449;SDS011;22475;51.390;7.180;2022-08-19T08:29:12;3.83;;;3.45;;
36449;SDS011;22475;51.390;7.180;2022-08-19T08:31:41;4.13;;;3.83;;
36449;SDS011;22475;51.390;7.180;2022-08-19T08:34:12;4.90;;;3.42;;
36449;SDS011;22475;51.390;7.180;2022-08-19T08:36:41;2.80;;;2.60;;
36449;SDS011;22475;51.390;7.180;2022-08-19T08:41:41;3.28;;;2.97;;
36449;SDS011;22475;51.390;7.180;2022-08-19T08:44:14;4.63;;;3.63;;
36449;SDS011;22475;51.390;7.180;2022-08-19T08:46:45;4.22;;;3.80;;
36449;SDS011;22475;51.390;7.180;2022-08-19T08:49:17;4.43;;;4.13;;
36449;SDS011;22475;51.390;7.180;2022-08-19T08:51:52;4.40;;;3.85;;
36449;SDS011;22475;51.390;7.180;2022-08-19T08:54:27;3.38;;;3.17;;
36449;SDS011;22475;51.390;7.180;2022-08-19T08:56:59;5.35;;;4.95;;
36449;SDS011;22475;51.390;7.180;2022-08-19T08:59:26;4.60;;;4.20;;
36449;SDS011;22475;51.390;7.180;2022-08-19T09:01:57;3.13;;;2.92;;
36449;SDS011;22475;51.390;7.180;2022-08-19T09:04:24;4.00;;;3.70;;
36449;SDS011;22475;51.390;7.180;2022-08-19T09:06:52;3.90;;;3.60;;
36449;SDS011;22475;51.390;7.180;2022-08-19T09:09:30;3.65;;;3.22;;
36449;SDS011;22475;51.390;7.180;2022-08-19T09:12:03;5.28;;;3.65;;
36449;SDS011;22475;51.390;7.180;2022-08-19T09:14:38;3.30;;;3.10;;
36449;SDS011;22475;51.390;7.180;2022-08-19T09:17:12;4.15;;;3.78;;
36449;SDS011;22475;51.390;7.180;2022-08-19T09:19:46;4.03;;;3.72;;
36449;SDS011;22475;51.390;7.180;2022-08-19T09:22:16;11.30;;;7.13;;
36449;SDS011;22475;51.390;7.180;2022-08-19T09:24:51;4.72;;;4.00;;
36449;SDS011;22475;51.390;7.180;2022-08-19T09:27:18;3.90;;;3.60;;
36449;SDS011;22475;51.390;7.180;2022-08-19T09:29:48;4.05;;;3.65;;
36449;SDS011;22475;51.390;7.180;2022-08-19T09:32:15;4.90;;;4.35;;
36449;SDS011;22475;51.390;7.180;2022-08-19T09:34:43;7.13;;;6.35;;
36449;SDS011;22475;51.390;7.180;2022-08-19T09:37:10;4.75;;;4.22;;
36449;SDS011;22475;51.390;7.180;2022-08-19T09:39:37;6.57;;;5.97;;
36449;SDS011;22475;51.390;7.180;2022-08-19T09:42:07;4.50;;;4.10;;
36449;SDS011;22475;51.390;7.180;2022-08-19T09:44:37;4.70;;;4.40;;
36449;SDS011;22475;51.390;7.180;2022-08-19T09:47:04;3.95;;;3.72;;
36449;SDS011;22475;51.390;7.180;2022-08-19T09:49:31;4.57;;;4.18;;
36449;SDS011;22475;51.390;7.180;2022-08-19T09:51:59;4.07;;;3.67;;
36449;SDS011;22475;51.390;7.180;2022-08-19T09:54:26;6.03;;;4.22;;
36449;SDS011;22475;51.390;7.180;2022-08-19T09:56:53;5.63;;;4.20;;
36449;SDS011;22475;51.390;7.180;2022-08-19T09:59:23;4.65;;;4.25;;
36449;SDS011;22475;51.390;7.180;2022-08-19T10:01:50;4.70;;;4.32;;
36449;SDS011;22475;51.390;7.180;2022-08-19T10:04:17;5.22;;;4.25;;
36449;SDS011;22475;51.390;7.180;2022-08-19T10:06:44;5.43;;;4.85;;
36449;SDS011;22475;51.390;7.180;2022-08-19T10:09:12;9.70;;;7.15;;
36449;SDS011;22475;51.390;7.180;2022-08-19T10:11:41;7.40;;;5.18;;
36449;SDS011;22475;51.390;7.180;2022-08-19T10:14:11;6.72;;;6.13;;
36449;SDS011;22475;51.390;7.180;2022-08-19T10:16:39;4.95;;;4.45;;
36449;SDS011;22475;51.390;7.180;2022-08-19T10:19:07;4.80;;;4.40;;
36449;SDS011;22475;51.390;7.180;2022-08-19T10:21:34;7.50;;;5.00;;
36449;SDS011;22475;51.390;7.180;2022-08-19T10:24:03;5.38;;;4.93;;
36449;SDS011;22475;51.390;7.180;2022-08-19T10:26:35;5.60;;;4.82;;
36449;SDS011;22475;51.390;7.180;2022-08-19T10:29:06;5.72;;;5.32;;
36449;SDS011;22475;51.390;7.180;2022-08-19T10:31:33;7.38;;;5.18;;
36449;SDS011;22475;51.390;7.180;2022-08-19T10:34:02;5.70;;;5.13;;
36449;SDS011;22475;51.390;7.180;2022-08-19T10:36:29;9.68;;;5.30;;
36449;SDS011;22475;51.390;7.180;2022-08-19T10:38:59;4.97;;;4.18;;
36449;SDS011;22475;51.390;7.180;2022-08-19T10:41:29;3.97;;;3.67;;
36449;SDS011;22475;51.390;7.180;2022-08-19T10:43:58;4.47;;;4.13;;
36449;SDS011;22475;51.390;7.180;2022-08-19T10:46:29;6.22;;;5.35;;
36449;SDS011;22475;51.390;7.180;2022-08-19T10:48:58;7.45;;;6.72;;
36449;SDS011;22475;51.390;7.180;2022-08-19T10:51:27;4.85;;;4.45;;
36449;SDS011;22475;51.390;7.180;2022-08-19T10:54:12;4.78;;;4.30;;
36449;SDS011;22475;51.390;7.180;2022-08-19T10:56:39;4.25;;;3.85;;
36449;SDS011;22475;51.390;7.180;2022-08-19T10:59:18;6.55;;;5.85;;
36449;SDS011;22475;51.390;7.180;2022-08-19T11:01:46;4.95;;;4.55;;
36449;SDS011;22475;51.390;7.180;2022-08-19T11:04:13;5.55;;;4.95;;
36449;SDS011;22475;51.390;7.180;2022-08-19T11:06:44;6.15;;;5.53;;
36449;SDS011;22475;51.390;7.180;2022-08-19T11:09:13;4.47;;;4.22;;
36449;SDS011;22475;51.390;7.180;2022-08-19T11:11:41;5.15;;;4.30;;
36449;SDS011;22475;51.390;7.180;2022-08-19T11:14:09;4.25;;;3.95;;
36449;SDS011;22475;51.390;7.180;2022-08-19T11:16:37;4.75;;;4.35;;
36449;SDS011;22475;51.390;7.180;2022-08-19T11:19:05;5.18;;;4.65;;
36449;SDS011;22475;51.390;7.180;2022-08-19T11:21:34;9.25;;;6.65;;
36449;SDS011;22475;51.390;7.180;2022-08-19T11:24:05;6.32;;;5.72;;
36449;SDS011;22475;51.390;7.180;2022-08-19T11:26:34;4.75;;;4.35;;
36449;SDS011;22475;51.390;7.180;2022-08-19T11:29:03;4.47;;;4.18;;
36449;SDS011;22475;51.390;7.180;2022-08-19T11:31:34;4.75;;;4.38;;
36449;SDS011;22475;51.390;7.180;2022-08-19T11:34:03;7.05;;;4.68;;
36449;SDS011;22475;51.390;7.180;2022-08-19T11:36:31;4.30;;;3.92;;
36449;SDS011;22475;51.390;7.180;2022-08-19T11:38:58;5.32;;;4.65;;
36449;SDS011;22475;51.390;7.180;2022-08-19T11:41:27;7.18;;;5.03;;
36449;SDS011;22475;51.390;7.180;2022-08-19T11:43:54;5.55;;;5.05;;
36449;SDS011;22475;51.390;7.180;2022-08-19T11:46:22;4.90;;;4.40;;
36449;SDS011;22475;51.390;7.180;2022-08-19T11:48:50;4.40;;;4.00;;
36449;SDS011;22475;51.390;7.180;2022-08-19T11:51:19;5.47;;;4.97;;
36449;SDS011;22475;51.390;7.180;2022-08-19T11:53:47;5.17;;;4.67;;
36449;SDS011;22475;51.390;7.180;2022-08-19T11:56:14;8.07;;;4.93;;
36449;SDS011;22475;51.390;7.180;2022-08-19T11:58:45;6.35;;;4.63;;
36449;SDS011;22475;51.390;7.180;2022-08-19T12:01:23;4.80;;;4.50;;
36449;SDS011;22475;51.390;7.180;2022-08-19T12:03:52;4.95;;;4.55;;
36449;SDS011;22475;51.390;7.180;2022-08-19T12:06:24;4.95;;;4.65;;
36449;SDS011;22475;51.390;7.180;2022-08-19T12:08:53;5.32;;;4.93;;
36449;SDS011;22475;51.390;7.180;2022-08-19T12:11:21;4.15;;;3.88;;
36449;SDS011;22475;51.390;7.180;2022-08-19T12:13:51;8.43;;;6.13;;
36449;SDS011;22475;51.390;7.180;2022-08-19T12:16:19;5.38;;;4.88;;
36449;SDS011;22475;51.390;7.180;2022-08-19T12:18:55;5.50;;;5.00;;
36449;SDS011;22475;51.390;7.180;2022-08-19T12:21:29;6.60;;;5.72;;
36449;SDS011;22475;51.390;7.180;2022-08-19T12:23:59;6.22;;;5.57;;
36449;SDS011;22475;51.390;7.180;2022-08-19T12:26:29;7.13;;;5.20;;
36449;SDS011;22475;51.390;7.180;2022-08-19T12:29:01;6.60;;;6.00;;
36449;SDS011;22475;51.390;7.180;2022-08-19T12:31:29;5.70;;;5.20;;
36449;SDS011;22475;51.390;7.180;2022-08-19T12:33:56;6.10;;;5.60;;
36449;SDS011;22475;51.390;7.180;2022-08-19T12:36:23;6.88;;;6.10;;
36449;SDS011;22475;51.390;7.180;2022-08-19T12:38:51;5.72;;;5.32;;
36449;SDS011;22475;51.390;7.180;2022-08-19T12:41:18;5.70;;;5.20;;
36449;SDS011;22475;51.390;7.180;2022-08-19T12:43:47;5.88;;;5.38;;
36449;SDS011;22475;51.390;7.180;2022-08-19T12:46:16;9.43;;;6.30;;
36449;SDS011;22475;51.390;7.180;2022-08-19T12:48:44;6.95;;;6.35;;
36449;SDS011;22475;51.390;7.180;2022-08-19T12:51:12;7.13;;;5.63;;
36449;SDS011;22475;51.390;7.180;2022-08-19T12:53:46;6.07;;;5.57;;
36449;SDS011;22475;51.390;7.180;2022-08-19T12:56:14;5.25;;;4.93;;
36449;SDS011;22475;51.390;7.180;2022-08-19T12:58:42;6.60;;;6.03;;
36449;SDS011;22475;51.390;7.180;2022-08-19T13:01:10;6.60;;;6.00;;
36449;SDS011;22475;51.390;7.180;2022-08-19T13:03:40;17.10;;;5.55;;
36449;SDS011;22475;51.390;7.180;2022-08-19T13:06:08;5.47;;;4.90;;
36449;SDS011;22475;51.390;7.180;2022-08-19T13:08:36;7.63;;;5.47;;
36449;SDS011;22475;51.390;7.180;2022-08-19T13:11:07;6.80;;;5.43;;
36449;SDS011;22475;51.390;7.180;2022-08-19T13:13:36;8.10;;;5.45;;
36449;SDS011;22475;51.390;7.180;2022-08-19T13:16:06;5.70;;;4.63;;
36449;SDS011;22475;51.390;7.180;2022-08-19T13:18:34;5.32;;;4.93;;
36449;SDS011;22475;51.390;7.180;2022-08-19T13:21:04;5.72;;;5.32;;
36449;SDS011;22475;51.390;7.180;2022-08-19T13:23:32;5.80;;;5.30;;
36449;SDS011;22475;51.390;7.180;2022-08-19T13:26:01;5.60;;;4.85;;
36449;SDS011;22475;51.390;7.180;2022-08-19T13:28:34;6.10;;;5.53;;
36449;SDS011;22475;51.390;7.180;2022-08-19T13:31:19;7.30;;;5.93;;
36449;SDS011;22475;51.390;7.180;2022-08-19T13:34:05;7.28;;;5.20;;
36449;SDS011;22475;51.390;7.180;2022-08-19T13:36:34;5.93;;;5.43;;
36449;SDS011;22475;51.390;7.180;2022-08-19T13:39:01;5.82;;;5.35;;
36449;SDS011;22475;51.390;7.180;2022-08-19T13:41:29;7.53;;;5.32;;
36449;SDS011;22475;51.390;7.180;2022-08-19T13:43:56;9.32;;;5.88;;
36449;SDS011;22475;51.390;7.180;2022-08-19T13:46:23;5.70;;;5.15;;
36449;SDS011;22475;51.390;7.180;2022-08-19T13:48:50;7.90;;;4.72;;
36449;SDS011;22475;51.390;7.180;2022-08-19T13:51:17;7.95;;;5.43;;
36449;SDS011;22475;51.390;7.180;2022-08-19T13:53:46;5.95;;;5.35;;
36449;SDS011;22475;51.390;7.180;2022-08-19T13:56:14;7.85;;;6.25;;
36449;SDS011;22475;51.390;7.180;2022-08-19T13:58:44;6.47;;;5.88;;
36449;SDS011;22475;51.390;7.180;2022-08-19T14:01:11;5.88;;;5.25;;
36449;SDS011;22475;51.390;7.180;2022-08-19T14:03:44;5.07;;;4.70;;
36449;SDS011;22475;51.390;7.180;2022-08-19T14:06:11;5.53;;;5.13;;
36449;SDS011;22475;51.390;7.180;2022-08-19T14:08:37;6.45;;;5.95;;
36449;SDS011;22475;51.390;7.180;2022-08-19T14:11:08;5.63;;;5.18;;
36449;SDS011;22475;51.390;7.180;2022-08-19T14:13:35;6.07;;;5.57;;
36449;SDS011;22475;51.390;7.180;2022-08-19T14:16:06;6.35;;;5.78;;
36449;SDS011;22475;51.390;7.180;2022-08-19T14:18:34;6.03;;;5.45;;
36449;SDS011;22475;51.390;7.180;2022-08-19T14:21:02;5.90;;;5.45;;
36449;SDS011;22475;51.390;7.180;2022-08-19T14:23:29;6.22;;;5.68;;
36449;SDS011;22475;51.390;7.180;2022-08-19T14:26:02;7.55;;;5.25;;
36449;SDS011;22475;51.390;7.180;2022-08-19T14:28:32;5.22;;;4.90;;
36449;SDS011;22475;51.390;7.180;2022-08-19T14:30:59;5.40;;;4.97;;
36449;SDS011;22475;51.390;7.180;2022-08-19T14:33:26;5.35;;;4.75;;
36449;SDS011;22475;51.390;7.180;2022-08-19T14:35:53;6.13;;;5.38;;
36449;SDS011;22475;51.390;7.180;2022-08-19T14:38:20;7.35;;;5.63;;
36449;SDS011;22475;51.390;7.180;2022-08-19T14:40:47;5.22;;;4.78;;
36449;SDS011;22475;51.390;7.180;2022-08-19T14:43:14;5.75;;;5.25;;
36449;SDS011;22475;51.390;7.180;2022-08-19T14:45:44;6.38;;;5.03;;
36449;SDS011;22475;51.390;7.180;2022-08-19T14:48:10;7.50;;;4.10;;
36449;SDS011;22475;51.390;7.180;2022-08-19T14:50:38;4.60;;;4.30;;
36449;SDS011;22475;51.390;7.180;2022-08-19T14:53:05;5.38;;;4.97;;
36449;SDS011;22475;51.390;7.180;2022-08-19T14:55:34;6.63;;;5.05;;
36449;SDS011;22475;51.390;7.180;2022-08-19T14:58:01;5.38;;;4.97;;
36449;SDS011;22475;51.390;7.180;2022-08-19T15:00:28;5.05;;;4.65;;
36449;SDS011;22475;51.390;7.180;2022-08-19T15:02:56;5.38;;;4.97;;